UAL1209 KMCO-KORD
Flight info
| Callsign | UAL1209 |
|---|---|
| Flight time | N/A |
| Altitude | 38000 |
| Route | RDSOX1 JFRYS BRUTS Q118 KAILL/N0466F370 Q118 VOSTK/N0469F380 Q118 HEVAN BONNT VEECK5 |
| Aircraft | B739/M-SDE2E3FGHIRWXY/LB1 |
Departure
| Time | N/A |
|---|---|
| Airport | Orlando International Airport (KMCO) |
Arrival
| Time | 2026-04-30 18:30 |
|---|---|
| Airport | Chicago O'Hare International Airport (KORD) |
| Time | Latitude | Longitude | Altitude | Speed | Heading |
|---|---|---|---|---|---|
| 2026-04-30 17:39 | 28.89709 | -82.69161 | 23584 ft | 450 kts | 333° |
| 2026-04-30 17:41 | 29.36564 | -82.91184 | 25393 ft | 459 kts | 332° |
| 2026-04-30 17:42 | 29.48377 | -82.96772 | 25749 ft | 460 kts | 332° |
| 2026-04-30 17:42 | 29.64203 | -83.04277 | 26153 ft | 460 kts | 332° |
| 2026-04-30 17:43 | 29.76003 | -83.09891 | 26528 ft | 459 kts | 332° |
| 2026-04-30 17:44 | 29.93646 | -83.18312 | 27243 ft | 455 kts | 332° |
| 2026-04-30 17:44 | 30.11020 | -83.26638 | 28442 ft | 449 kts | 331° |
| 2026-04-30 17:46 | 30.39493 | -83.40364 | 31129 ft | 436 kts | 331° |
| 2026-04-30 17:47 | 30.61590 | -83.51091 | 33748 ft | 425 kts | 331° |
| 2026-04-30 17:48 | 30.82990 | -83.61530 | 36146 ft | 410 kts | 330° |
| 2026-04-30 17:48 | 30.90927 | -83.65413 | 37056 ft | 404 kts | 330° |
| 2026-04-30 17:49 | 31.11677 | -83.75607 | 37960 ft | 402 kts | 329° |
| 2026-04-30 17:50 | 31.44344 | -83.91748 | 37986 ft | 393 kts | 328° |
| 2026-04-30 17:52 | 32.59271 | -84.19675 | 37964 ft | 393 kts | 338° |
| 2026-04-30 17:54 | 34.35991 | -84.55931 | 38030 ft | 412 kts | 343° |
| 2026-04-30 17:55 | 35.24656 | -84.65120 | 37993 ft | 397 kts | 340° |
| 2026-04-30 17:56 | 36.13131 | -84.74788 | 38064 ft | 401 kts | 339° |
| 2026-04-30 17:57 | 36.82458 | -84.76722 | 38102 ft | 429 kts | 348° |
| 2026-04-30 17:58 | 37.53438 | -84.74666 | 38136 ft | 430 kts | 347° |
| 2026-04-30 18:00 | 39.18050 | -85.04912 | 38148 ft | 418 kts | 330° |
| 2026-04-30 18:01 | 39.36476 | -85.13603 | 38106 ft | 423 kts | 331° |
| 2026-04-30 18:02 | 39.43785 | -85.17065 | 37979 ft | 425 kts | 331° |
| 2026-04-30 18:02 | 39.51779 | -85.20849 | 37218 ft | 419 kts | 331° |
| 2026-04-30 18:03 | 39.59998 | -85.24762 | 36486 ft | 420 kts | 331° |
| 2026-04-30 18:04 | 39.68223 | -85.28680 | 35746 ft | 418 kts | 331° |
| 2026-04-30 18:05 | 39.79094 | -85.33879 | 34840 ft | 415 kts | 331° |
| 2026-04-30 18:06 | 40.01724 | -85.44764 | 32773 ft | 410 kts | 330° |
| 2026-04-30 18:07 | 40.45823 | -85.66200 | 28818 ft | 428 kts | 331° |
| 2026-04-30 18:08 | 40.78202 | -85.78538 | 26981 ft | 428 kts | 336° |
| 2026-04-30 18:09 | 40.91736 | -85.96974 | 24057 ft | 315 kts | 291° |
| 2026-04-30 18:10 | 40.99593 | -86.21487 | 23524 ft | 378 kts | 292° |
| 2026-04-30 18:11 | 41.07589 | -86.46404 | 18029 ft | 344 kts | 292° |
| 2026-04-30 18:11 | 41.13680 | -86.65015 | 16248 ft | 361 kts | 298° |
| 2026-04-30 18:12 | 41.21125 | -86.82454 | 14547 ft | 361 kts | 299° |
| 2026-04-30 18:13 | 41.25920 | -86.93950 | 13391 ft | 347 kts | 299° |
| 2026-04-30 18:13 | 41.32116 | -87.08894 | 11942 ft | 348 kts | 298° |
| 2026-04-30 18:14 | 41.38207 | -87.21503 | 10993 ft | 346 kts | 316° |
| 2026-04-30 18:15 | 41.48566 | -87.33788 | 10257 ft | 296 kts | 316° |
| 2026-04-30 18:15 | 41.57342 | -87.42203 | 9764 ft | 231 kts | 322° |
| 2026-04-30 18:16 | 41.62731 | -87.47025 | 9557 ft | 247 kts | 322° |
| 2026-04-30 18:16 | 41.68387 | -87.52734 | 9239 ft | 255 kts | 316° |
| 2026-04-30 18:17 | 41.71042 | -87.55806 | 9060 ft | 250 kts | 316° |
| 2026-04-30 18:17 | 41.73656 | -87.58790 | 8885 ft | 245 kts | 317° |
| 2026-04-30 18:17 | 41.78825 | -87.64578 | 8603 ft | 240 kts | 316° |
| 2026-04-30 18:18 | 41.81392 | -87.67457 | 8468 ft | 243 kts | 316° |
| 2026-04-30 18:18 | 41.83846 | -87.70605 | 8327 ft | 245 kts | 301° |
| 2026-04-30 18:18 | 41.84832 | -87.72757 | 8250 ft | 245 kts | 301° |
| 2026-04-30 18:18 | 41.85755 | -87.74685 | 8184 ft | 246 kts | 301° |
| 2026-04-30 18:19 | 41.86691 | -87.76608 | 8112 ft | 247 kts | 302° |
| 2026-04-30 18:19 | 41.87636 | -87.78542 | 8037 ft | 249 kts | 302° |
| 2026-04-30 18:19 | 41.88351 | -87.80635 | 7950 ft | 248 kts | 281° |
| 2026-04-30 18:19 | 41.88499 | -87.82935 | 7889 ft | 248 kts | 272° |
| 2026-04-30 18:20 | 41.88494 | -87.85246 | 7808 ft | 247 kts | 270° |
| 2026-04-30 18:20 | 41.88473 | -87.87545 | 7734 ft | 246 kts | 270° |
| 2026-04-30 18:20 | 41.88459 | -87.89835 | 7659 ft | 245 kts | 270° |
| 2026-04-30 18:20 | 41.88453 | -87.92115 | 7587 ft | 244 kts | 271° |
| 2026-04-30 18:21 | 41.88450 | -87.96181 | 7464 ft | 242 kts | 270° |
| 2026-04-30 18:21 | 41.88414 | -88.00698 | 7323 ft | 242 kts | 268° |
| 2026-04-30 18:21 | 41.88253 | -88.05213 | 7176 ft | 243 kts | 268° |
| 2026-04-30 18:21 | 41.88090 | -88.09739 | 7017 ft | 243 kts | 268° |
| 2026-04-30 18:22 | 41.87930 | -88.14270 | 6862 ft | 243 kts | 267° |
| 2026-04-30 18:22 | 41.87746 | -88.19588 | 6702 ft | 244 kts | 267° |
| 2026-04-30 18:22 | 41.87666 | -88.21862 | 6630 ft | 244 kts | 267° |
| 2026-04-30 18:23 | 41.87586 | -88.24140 | 6560 ft | 244 kts | 267° |
| 2026-04-30 18:23 | 41.87505 | -88.26416 | 6486 ft | 244 kts | 267° |
| 2026-04-30 18:23 | 41.87514 | -88.28685 | 6392 ft | 244 kts | 281° |
| 2026-04-30 18:23 | 41.88261 | -88.30718 | 6329 ft | 247 kts | 309° |
| 2026-04-30 18:24 | 41.90794 | -88.32457 | 6206 ft | 257 kts | 352° |
| 2026-04-30 18:24 | 41.92584 | -88.32157 | 6135 ft | 264 kts | 14° |
| 2026-04-30 18:24 | 41.94307 | -88.31299 | 6071 ft | 266 kts | 21° |
| 2026-04-30 18:25 | 41.95753 | -88.29756 | 5967 ft | 272 kts | 55° |
| 2026-04-30 18:25 | 41.96587 | -88.24759 | 5367 ft | 281 kts | 88° |
| 2026-04-30 18:25 | 41.96601 | -88.22132 | 4990 ft | 281 kts | 91° |
| 2026-04-30 18:26 | 41.96567 | -88.16904 | 4225 ft | 274 kts | 91° |
| 2026-04-30 18:26 | 41.96564 | -88.14383 | 3857 ft | 265 kts | 90° |
| 2026-04-30 18:26 | 41.96564 | -88.11949 | 3498 ft | 256 kts | 90° |
| 2026-04-30 18:27 | 41.96562 | -88.07339 | 2802 ft | 236 kts | 90° |
| 2026-04-30 18:27 | 41.96562 | -88.05241 | 2494 ft | 220 kts | 90° |
| 2026-04-30 18:28 | 41.96563 | -88.01416 | 1973 ft | 187 kts | 90° |
| 2026-04-30 18:28 | 41.96563 | -87.99755 | 1727 ft | 168 kts | 89° |
| 2026-04-30 18:28 | 41.96558 | -87.96862 | 1235 ft | 147 kts | 89° |
| 2026-04-30 18:29 | 41.96567 | -87.95515 | 1082 ft | 143 kts | 89° |
| 2026-04-30 18:29 | 41.96575 | -87.91656 | 669 ft | 111 kts | 90° |
| 2026-04-30 18:30 | 41.96689 | -87.90740 | 668 ft | 20 kts | 9° |
| 2026-04-30 18:30 | 41.96742 | -87.90824 | 669 ft | 0 kts | 279° |
| 2026-04-30 18:31 | 41.96741 | -87.90865 | 669 ft | 11 kts | 269° |
| 2026-04-30 18:31 | 41.96864 | -87.91168 | 671 ft | 25 kts | 317° |
| 2026-04-30 18:32 | 41.97049 | -87.91300 | 670 ft | 10 kts | 92° |
| 2026-04-30 18:32 | 41.97044 | -87.91195 | 670 ft | 13 kts | 88° |
| 2026-04-30 18:32 | 41.97043 | -87.90913 | 669 ft | 18 kts | 91° |
| 2026-04-30 18:33 | 41.97042 | -87.90728 | 669 ft | 22 kts | 90° |
| 2026-04-30 18:33 | 41.97179 | -87.90523 | 668 ft | 20 kts | 336° |
| 2026-04-30 18:33 | 41.97230 | -87.90687 | 669 ft | 19 kts | 285° |
| 2026-04-30 18:34 | 41.97302 | -87.90830 | 670 ft | 18 kts | 314° |
| 2026-04-30 18:34 | 41.97521 | -87.91028 | 670 ft | 24 kts | 12° |
| 2026-04-30 18:34 | 41.97665 | -87.90918 | 669 ft | 22 kts | 32° |
| 2026-04-30 18:35 | 41.97727 | -87.90829 | 670 ft | 7 kts | 89° |
| 2026-04-30 18:35 | 41.97723 | -87.90783 | 670 ft | 0 kts | 99° |